EDLI 071848Z 07001KT 9999 08/08 Q1018

Wind aktuell: 070° mit 1 kt

Wind 10 Minuten extrem:

060° bis 080° mit 1 kt bis 1 kt

Seitenwindkomponente: -0.4 kt

Wolkengrenze 1: keine

Wolkengrenze 2: keine

Wolkengrenze 3: keine

Sichtweite: 20.000 Meter

Vorheriges Wetter:

Aktuelles Wetter:

Druckhöhe: 319 ft

Dichtehöhe: -336 ft

Temperatur: 8.9 °C

Taupunkt: 8.3 °C

Luftfeuchtigkeit: 96%

QNH: 1018 hPa 

QFE: 1002 hPa

Diese Daten werden automatisch ermittelt bzw. übertragen und sind nicht geprüft. Für die Richtigkeit wird daher keine Gewähr übernommen. Sie ersetzen im übrigen nicht die Flugwetterberatung. Alle Zeitangaben beziehen sich auf UTC. Die Seite wird einmal die Minute aktualisiert! Sollten Sie ein ältere Seite haben, so drücken Sie bitte auf den Reload Button Ihres Browsers!